sensor_id;sensor_type;location;lat;lon;timestamp;P1;durP1;ratioP1;P2;durP2;ratioP2
52940;SDS011;62001;53.366;6.636;2022-09-28T00:01:25;9.10;;;4.93;;
52940;SDS011;62001;53.366;6.636;2022-09-28T00:03:52;8.80;;;4.85;;
52940;SDS011;62001;53.366;6.636;2022-09-28T00:06:22;7.80;;;4.80;;
52940;SDS011;62001;53.366;6.636;2022-09-28T00:08:50;8.80;;;5.18;;
52940;SDS011;62001;53.366;6.636;2022-09-28T00:11:17;10.75;;;5.45;;
52940;SDS011;62001;53.366;6.636;2022-09-28T00:13:47;8.15;;;4.97;;
52940;SDS011;62001;53.366;6.636;2022-09-28T00:16:20;7.78;;;4.95;;
52940;SDS011;62001;53.366;6.636;2022-09-28T00:18:47;8.82;;;6.03;;
52940;SDS011;62001;53.366;6.636;2022-09-28T00:21:16;9.05;;;6.55;;
52940;SDS011;62001;53.366;6.636;2022-09-28T00:23:50;8.07;;;5.85;;
52940;SDS011;62001;53.366;6.636;2022-09-28T00:29:17;9.90;;;6.25;;
52940;SDS011;62001;53.366;6.636;2022-09-28T00:31:53;10.77;;;6.50;;
52940;SDS011;62001;53.366;6.636;2022-09-28T00:34:24;10.45;;;6.60;;
52940;SDS011;62001;53.366;6.636;2022-09-28T00:36:51;8.70;;;6.07;;
52940;SDS011;62001;53.366;6.636;2022-09-28T00:39:17;13.32;;;6.60;;
52940;SDS011;62001;53.366;6.636;2022-09-28T00:41:43;11.20;;;6.10;;
52940;SDS011;62001;53.366;6.636;2022-09-28T00:47:34;9.73;;;5.68;;
52940;SDS011;62001;53.366;6.636;2022-09-28T00:53:01;12.88;;;6.00;;
52940;SDS011;62001;53.366;6.636;2022-09-28T00:55:45;9.05;;;6.53;;
52940;SDS011;62001;53.366;6.636;2022-09-28T00:58:19;10.23;;;6.88;;
52940;SDS011;62001;53.366;6.636;2022-09-28T01:00:49;8.70;;;6.32;;
52940;SDS011;62001;53.366;6.636;2022-09-28T01:03:15;11.35;;;7.32;;
52940;SDS011;62001;53.366;6.636;2022-09-28T01:05:42;15.70;;;7.97;;
52940;SDS011;62001;53.366;6.636;2022-09-28T01:08:09;15.77;;;8.18;;
52940;SDS011;62001;53.366;6.636;2022-09-28T01:10:35;16.25;;;8.10;;
52940;SDS011;62001;53.366;6.636;2022-09-28T01:13:03;12.25;;;7.07;;
52940;SDS011;62001;53.366;6.636;2022-09-28T01:15:29;12.10;;;7.82;;
52940;SDS011;62001;53.366;6.636;2022-09-28T01:26:45;12.18;;;7.72;;
52940;SDS011;62001;53.366;6.636;2022-09-28T01:35:02;120.18;;;7.90;;
52940;SDS011;62001;53.366;6.636;2022-09-28T01:37:37;39.13;;;4.90;;
52940;SDS011;62001;53.366;6.636;2022-09-28T01:40:11;23.65;;;3.83;;
52940;SDS011;62001;53.366;6.636;2022-09-28T01:42:40;16.70;;;3.20;;
52940;SDS011;62001;53.366;6.636;2022-09-28T01:45:10;5.67;;;3.90;;
52940;SDS011;62001;53.366;6.636;2022-09-28T01:47:48;5.40;;;4.03;;
52940;SDS011;62001;53.366;6.636;2022-09-28T01:50:16;6.33;;;3.93;;
52940;SDS011;62001;53.366;6.636;2022-09-28T01:52:50;8.50;;;5.23;;
52940;SDS011;62001;53.366;6.636;2022-09-28T01:55:27;10.87;;;7.13;;
52940;SDS011;62001;53.366;6.636;2022-09-28T01:57:59;37.37;;;5.00;;
52940;SDS011;62001;53.366;6.636;2022-09-28T02:00:28;54.37;;;4.57;;
52940;SDS011;62001;53.366;6.636;2022-09-28T02:02:59;15.53;;;2.90;;
52940;SDS011;62001;53.366;6.636;2022-09-28T02:10:28;46.60;;;4.70;;
52940;SDS011;62001;53.366;6.636;2022-09-28T02:16:17;7.00;;;4.37;;
52940;SDS011;62001;53.366;6.636;2022-09-28T02:18:53;114.50;;;4.80;;
52940;SDS011;62001;53.366;6.636;2022-09-28T02:21:24;105.13;;;4.53;;
52940;SDS011;62001;53.366;6.636;2022-09-28T02:23:57;41.33;;;3.43;;
52940;SDS011;62001;53.366;6.636;2022-09-28T02:26:29;50.23;;;3.77;;
52940;SDS011;62001;53.366;6.636;2022-09-28T02:29:05;3.50;;;3.07;;
52940;SDS011;62001;53.366;6.636;2022-09-28T02:31:32;15.07;;;4.47;;
52940;SDS011;62001;53.366;6.636;2022-09-28T02:33:58;19.27;;;4.80;;
52940;SDS011;62001;53.366;6.636;2022-09-28T02:36:25;148.43;;;7.13;;
52940;SDS011;62001;53.366;6.636;2022-09-28T02:38:52;185.47;;;7.10;;
52940;SDS011;62001;53.366;6.636;2022-09-28T02:44:09;44.30;;;3.50;;
52940;SDS011;62001;53.366;6.636;2022-09-28T02:47:17;70.83;;;4.33;;
52940;SDS011;62001;53.366;6.636;2022-09-28T02:50:01;120.57;;;5.47;;
52940;SDS011;62001;53.366;6.636;2022-09-28T03:07:17;86.22;;;7.82;;
52940;SDS011;62001;53.366;6.636;2022-09-28T03:09:51;52.37;;;6.80;;
52940;SDS011;62001;53.366;6.636;2022-09-28T03:12:40;167.63;;;6.23;;
52940;SDS011;62001;53.366;6.636;2022-09-28T03:17:46;43.20;;;2.63;;
52940;SDS011;62001;53.366;6.636;2022-09-28T03:20:12;37.47;;;3.17;;
52940;SDS011;62001;53.366;6.636;2022-09-28T03:22:38;12.47;;;2.57;;
52940;SDS011;62001;53.366;6.636;2022-09-28T03:25:04;47.93;;;4.33;;
52940;SDS011;62001;53.366;6.636;2022-09-28T03:27:31;117.33;;;5.87;;
52940;SDS011;62001;53.366;6.636;2022-09-28T03:29:57;169.57;;;6.60;;
52940;SDS011;62001;53.366;6.636;2022-09-28T03:32:23;122.60;;;5.43;;
52940;SDS011;62001;53.366;6.636;2022-09-28T03:34:49;167.67;;;7.30;;
52940;SDS011;62001;53.366;6.636;2022-09-28T03:37:15;126.20;;;6.30;;
52940;SDS011;62001;53.366;6.636;2022-09-28T03:39:40;105.47;;;6.23;;
52940;SDS011;62001;53.366;6.636;2022-09-28T03:42:06;59.67;;;4.83;;
52940;SDS011;62001;53.366;6.636;2022-09-28T03:44:32;51.83;;;3.90;;
52940;SDS011;62001;53.366;6.636;2022-09-28T03:46:58;57.87;;;4.23;;
52940;SDS011;62001;53.366;6.636;2022-09-28T03:49:23;58.67;;;4.03;;
52940;SDS011;62001;53.366;6.636;2022-09-28T03:51:49;69.67;;;4.20;;
52940;SDS011;62001;53.366;6.636;2022-09-28T03:54:15;53.90;;;5.30;;
52940;SDS011;62001;53.366;6.636;2022-09-28T03:56:41;46.37;;;5.40;;
52940;SDS011;62001;53.366;6.636;2022-09-28T03:59:07;46.90;;;4.87;;
52940;SDS011;62001;53.366;6.636;2022-09-28T04:01:32;50.73;;;4.37;;
52940;SDS011;62001;53.366;6.636;2022-09-28T04:03:58;60.90;;;4.60;;
52940;SDS011;62001;53.366;6.636;2022-09-28T04:06:24;28.43;;;3.23;;
52940;SDS011;62001;53.366;6.636;2022-09-28T04:08:50;29.13;;;3.30;;
52940;SDS011;62001;53.366;6.636;2022-09-28T04:11:16;15.33;;;3.40;;
52940;SDS011;62001;53.366;6.636;2022-09-28T04:13:42;18.10;;;3.93;;
52940;SDS011;62001;53.366;6.636;2022-09-28T04:16:08;9.97;;;4.30;;
52940;SDS011;62001;53.366;6.636;2022-09-28T04:18:35;8.43;;;4.53;;
52940;SDS011;62001;53.366;6.636;2022-09-28T04:21:02;12.77;;;4.83;;
52940;SDS011;62001;53.366;6.636;2022-09-28T04:23:33;8.40;;;4.80;;
52940;SDS011;62001;53.366;6.636;2022-09-28T04:26:01;41.97;;;4.07;;
52940;SDS011;62001;53.366;6.636;2022-09-28T04:28:28;34.43;;;3.90;;
52940;SDS011;62001;53.366;6.636;2022-09-28T04:31:18;70.13;;;5.03;;
52940;SDS011;62001;53.366;6.636;2022-09-28T04:33:50;49.80;;;4.43;;
52940;SDS011;62001;53.366;6.636;2022-09-28T04:36:19;33.20;;;3.80;;
52940;SDS011;62001;53.366;6.636;2022-09-28T04:38:45;21.40;;;3.67;;
52940;SDS011;62001;53.366;6.636;2022-09-28T04:41:11;17.40;;;3.87;;
52940;SDS011;62001;53.366;6.636;2022-09-28T04:43:36;18.93;;;3.77;;
52940;SDS011;62001;53.366;6.636;2022-09-28T04:46:02;15.07;;;4.70;;
52940;SDS011;62001;53.366;6.636;2022-09-28T04:48:31;8.40;;;4.03;;
52940;SDS011;62001;53.366;6.636;2022-09-28T04:50:57;20.23;;;4.27;;
52940;SDS011;62001;53.366;6.636;2022-09-28T04:53:25;35.47;;;4.87;;
52940;SDS011;62001;53.366;6.636;2022-09-28T04:55:58;20.80;;;4.37;;
52940;SDS011;62001;53.366;6.636;2022-09-28T04:58:26;8.13;;;4.20;;
52940;SDS011;62001;53.366;6.636;2022-09-28T05:00:55;40.10;;;7.10;;
52940;SDS011;62001;53.366;6.636;2022-09-28T05:03:22;13.15;;;4.95;;
52940;SDS011;62001;53.366;6.636;2022-09-28T05:05:48;20.07;;;5.93;;
52940;SDS011;62001;53.366;6.636;2022-09-28T05:08:14;82.70;;;8.60;;
52940;SDS011;62001;53.366;6.636;2022-09-28T05:10:41;152.47;;;11.83;;
52940;SDS011;62001;53.366;6.636;2022-09-28T05:13:10;55.43;;;8.13;;
52940;SDS011;62001;53.366;6.636;2022-09-28T05:15:38;119.55;;;10.85;;
52940;SDS011;62001;53.366;6.636;2022-09-28T05:18:05;168.00;;;14.43;;
52940;SDS011;62001;53.366;6.636;2022-09-28T05:20:31;123.87;;;11.70;;
52940;SDS011;62001;53.366;6.636;2022-09-28T05:22:58;185.30;;;15.17;;
52940;SDS011;62001;53.366;6.636;2022-09-28T05:25:24;131.63;;;10.33;;
52940;SDS011;62001;53.366;6.636;2022-09-28T05:27:56;35.33;;;7.50;;
52940;SDS011;62001;53.366;6.636;2022-09-28T05:30:22;38.30;;;6.07;;
52940;SDS011;62001;53.366;6.636;2022-09-28T05:32:48;37.77;;;5.83;;
52940;SDS011;62001;53.366;6.636;2022-09-28T05:35:17;35.43;;;6.03;;
52940;SDS011;62001;53.366;6.636;2022-09-28T05:37:44;25.90;;;5.50;;
52940;SDS011;62001;53.366;6.636;2022-09-28T05:40:10;26.70;;;5.57;;
52940;SDS011;62001;53.366;6.636;2022-09-28T05:42:36;27.53;;;5.13;;
52940;SDS011;62001;53.366;6.636;2022-09-28T05:45:02;17.57;;;5.33;;
52940;SDS011;62001;53.366;6.636;2022-09-28T05:47:29;30.40;;;5.13;;
52940;SDS011;62001;53.366;6.636;2022-09-28T05:49:55;38.60;;;5.50;;
52940;SDS011;62001;53.366;6.636;2022-09-28T05:52:20;37.53;;;5.43;;
52940;SDS011;62001;53.366;6.636;2022-09-28T05:54:46;26.33;;;4.70;;
52940;SDS011;62001;53.366;6.636;2022-09-28T05:57:13;24.93;;;4.37;;
52940;SDS011;62001;53.366;6.636;2022-09-28T05:59:39;45.13;;;5.77;;
52940;SDS011;62001;53.366;6.636;2022-09-28T06:02:04;41.47;;;5.90;;
52940;SDS011;62001;53.366;6.636;2022-09-28T06:04:31;55.87;;;7.60;;
52940;SDS011;62001;53.366;6.636;2022-09-28T06:06:57;41.53;;;6.17;;
52940;SDS011;62001;53.366;6.636;2022-09-28T06:09:23;47.60;;;7.23;;
52940;SDS011;62001;53.366;6.636;2022-09-28T06:11:49;24.20;;;6.27;;
52940;SDS011;62001;53.366;6.636;2022-09-28T06:14:15;33.73;;;6.77;;
52940;SDS011;62001;53.366;6.636;2022-09-28T06:16:41;19.30;;;6.60;;
52940;SDS011;62001;53.366;6.636;2022-09-28T06:19:08;24.80;;;7.37;;
52940;SDS011;62001;53.366;6.636;2022-09-28T06:21:34;37.33;;;6.97;;
52940;SDS011;62001;53.366;6.636;2022-09-28T06:24:00;63.93;;;9.47;;
52940;SDS011;62001;53.366;6.636;2022-09-28T06:26:27;51.27;;;8.60;;
52940;SDS011;62001;53.366;6.636;2022-09-28T06:28:53;54.13;;;8.73;;
52940;SDS011;62001;53.366;6.636;2022-09-28T06:31:19;59.97;;;7.73;;
52940;SDS011;62001;53.366;6.636;2022-09-28T06:33:50;86.77;;;8.43;;
52940;SDS011;62001;53.366;6.636;2022-09-28T06:36:17;62.37;;;7.60;;
52940;SDS011;62001;53.366;6.636;2022-09-28T06:38:44;90.47;;;8.73;;
52940;SDS011;62001;53.366;6.636;2022-09-28T06:41:10;50.50;;;7.00;;
52940;SDS011;62001;53.366;6.636;2022-09-28T06:43:36;57.27;;;7.20;;
52940;SDS011;62001;53.366;6.636;2022-09-28T06:46:03;41.77;;;7.17;;
52940;SDS011;62001;53.366;6.636;2022-09-28T06:48:30;62.90;;;7.07;;
52940;SDS011;62001;53.366;6.636;2022-09-28T06:50:58;51.60;;;7.17;;
52940;SDS011;62001;53.366;6.636;2022-09-28T06:53:24;50.50;;;7.53;;
52940;SDS011;62001;53.366;6.636;2022-09-28T06:55:54;40.87;;;7.30;;
52940;SDS011;62001;53.366;6.636;2022-09-28T06:58:21;28.13;;;6.60;;
52940;SDS011;62001;53.366;6.636;2022-09-28T07:00:48;44.93;;;7.27;;
52940;SDS011;62001;53.366;6.636;2022-09-28T07:03:17;73.10;;;8.00;;
52940;SDS011;62001;53.366;6.636;2022-09-28T07:05:45;76.80;;;7.63;;
52940;SDS011;62001;53.366;6.636;2022-09-28T07:08:13;150.53;;;10.17;;
52940;SDS011;62001;53.366;6.636;2022-09-28T07:10:40;74.93;;;8.00;;
52940;SDS011;62001;53.366;6.636;2022-09-28T07:13:10;72.70;;;8.50;;
52940;SDS011;62001;53.366;6.636;2022-09-28T07:15:37;54.08;;;7.65;;
52940;SDS011;62001;53.366;6.636;2022-09-28T07:18:05;32.25;;;7.22;;
52940;SDS011;62001;53.366;6.636;2022-09-28T07:20:32;24.30;;;6.60;;
52940;SDS011;62001;53.366;6.636;2022-09-28T07:23:00;22.25;;;6.15;;
52940;SDS011;62001;53.366;6.636;2022-09-28T07:25:28;23.20;;;6.45;;
52940;SDS011;62001;53.366;6.636;2022-09-28T07:27:58;12.82;;;6.78;;
52940;SDS011;62001;53.366;6.636;2022-09-28T07:30:25;10.90;;;6.93;;
52940;SDS011;62001;53.366;6.636;2022-09-28T07:32:53;8.23;;;6.00;;
52940;SDS011;62001;53.366;6.636;2022-09-28T07:35:19;10.45;;;7.10;;
52940;SDS011;62001;53.366;6.636;2022-09-28T07:37:46;8.68;;;7.22;;
52940;SDS011;62001;53.366;6.636;2022-09-28T07:40:12;9.27;;;7.70;;
52940;SDS011;62001;53.366;6.636;2022-09-28T07:43:02;8.23;;;7.07;;
52940;SDS011;62001;53.366;6.636;2022-09-28T07:45:29;7.43;;;6.72;;
52940;SDS011;62001;53.366;6.636;2022-09-28T07:47:58;6.80;;;6.10;;
52940;SDS011;62001;53.366;6.636;2022-09-28T07:50:23;6.63;;;5.97;;
52940;SDS011;62001;53.366;6.636;2022-09-28T07:52:49;7.82;;;5.70;;
52940;SDS011;62001;53.366;6.636;2022-09-28T07:55:15;6.75;;;6.00;;
52940;SDS011;62001;53.366;6.636;2022-09-28T07:57:41;7.05;;;5.72;;
52940;SDS011;62001;53.366;6.636;2022-09-28T08:00:10;7.22;;;6.20;;
52940;SDS011;62001;53.366;6.636;2022-09-28T08:02:36;8.27;;;5.85;;
52940;SDS011;62001;53.366;6.636;2022-09-28T08:05:02;8.48;;;6.13;;
52940;SDS011;62001;53.366;6.636;2022-09-28T08:07:28;7.60;;;5.60;;
52940;SDS011;62001;53.366;6.636;2022-09-28T08:09:54;5.68;;;5.10;;
52940;SDS011;62001;53.366;6.636;2022-09-28T08:12:20;5.45;;;4.78;;
52940;SDS011;62001;53.366;6.636;2022-09-28T08:14:46;8.55;;;5.45;;
52940;SDS011;62001;53.366;6.636;2022-09-28T08:17:13;5.93;;;5.22;;
52940;SDS011;62001;53.366;6.636;2022-09-28T08:19:39;6.80;;;4.60;;
52940;SDS011;62001;53.366;6.636;2022-09-28T08:22:24;6.43;;;4.38;;
52940;SDS011;62001;53.366;6.636;2022-09-28T08:24:50;5.65;;;4.57;;
52940;SDS011;62001;53.366;6.636;2022-09-28T08:27:16;6.28;;;5.10;;
52940;SDS011;62001;53.366;6.636;2022-09-28T08:29:42;6.47;;;4.68;;
52940;SDS011;62001;53.366;6.636;2022-09-28T08:32:09;6.18;;;4.97;;
52940;SDS011;62001;53.366;6.636;2022-09-28T08:34:35;5.13;;;4.40;;
52940;SDS011;62001;53.366;6.636;2022-09-28T08:37:03;6.72;;;5.70;;
52940;SDS011;62001;53.366;6.636;2022-09-28T08:39:29;4.82;;;4.32;;
52940;SDS011;62001;53.366;6.636;2022-09-28T08:42:05;4.65;;;4.10;;
52940;SDS011;62001;53.366;6.636;2022-09-28T08:44:55;6.15;;;3.58;;
52940;SDS011;62001;53.366;6.636;2022-09-28T08:47:31;4.20;;;3.03;;
52940;SDS011;62001;53.366;6.636;2022-09-28T08:50:20;4.70;;;3.05;;
52940;SDS011;62001;53.366;6.636;2022-09-28T08:52:53;3.65;;;2.83;;
52940;SDS011;62001;53.366;6.636;2022-09-28T08:55:31;4.55;;;3.10;;
52940;SDS011;62001;53.366;6.636;2022-09-28T08:58:11;5.78;;;2.78;;
52940;SDS011;62001;53.366;6.636;2022-09-28T09:00:49;5.45;;;2.80;;
52940;SDS011;62001;53.366;6.636;2022-09-28T09:03:20;3.83;;;2.88;;
52940;SDS011;62001;53.366;6.636;2022-09-28T09:08:56;6.38;;;2.90;;
52940;SDS011;62001;53.366;6.636;2022-09-28T09:20:10;4.57;;;2.95;;
52940;SDS011;62001;53.366;6.636;2022-09-28T09:22:46;6.10;;;2.10;;
52940;SDS011;62001;53.366;6.636;2022-09-28T09:25:25;4.60;;;2.00;;
52940;SDS011;62001;53.366;6.636;2022-09-28T09:36:47;4.80;;;1.60;;
52940;SDS011;62001;53.366;6.636;2022-09-28T09:40:08;6.90;;;1.50;;
52940;SDS011;62001;53.366;6.636;2022-09-28T09:48:06;6.57;;;1.60;;
52940;SDS011;62001;53.366;6.636;2022-09-28T09:50:48;3.45;;;1.27;;
52940;SDS011;62001;53.366;6.636;2022-09-28T09:53:22;3.50;;;1.20;;
52940;SDS011;62001;53.366;6.636;2022-09-28T09:56:08;4.20;;;1.20;;
52940;SDS011;62001;53.366;6.636;2022-09-28T09:58:52;1.40;;;1.27;;
52940;SDS011;62001;53.366;6.636;2022-09-28T10:01:54;3.53;;;1.30;;
52940;SDS011;62001;53.366;6.636;2022-09-28T10:04:23;4.18;;;1.20;;
52940;SDS011;62001;53.366;6.636;2022-09-28T10:06:57;1.60;;;1.17;;
52940;SDS011;62001;53.366;6.636;2022-09-28T10:09:29;6.07;;;1.98;;
52940;SDS011;62001;53.366;6.636;2022-09-28T10:12:11;2.70;;;1.48;;
52940;SDS011;62001;53.366;6.636;2022-09-28T10:14:43;3.33;;;1.20;;
52940;SDS011;62001;53.366;6.636;2022-09-28T10:17:10;1.92;;;1.13;;
52940;SDS011;62001;53.366;6.636;2022-09-28T10:22:08;5.05;;;1.10;;
52940;SDS011;62001;53.366;6.636;2022-09-28T10:24:43;6.10;;;1.60;;
52940;SDS011;62001;53.366;6.636;2022-09-28T10:27:17;2.20;;;1.02;;
52940;SDS011;62001;53.366;6.636;2022-09-28T10:32:26;3.13;;;0.90;;
52940;SDS011;62001;53.366;6.636;2022-09-28T10:35:11;3.20;;;0.93;;
52940;SDS011;62001;53.366;6.636;2022-09-28T10:38:02;4.47;;;0.93;;
52940;SDS011;62001;53.366;6.636;2022-09-28T10:40:45;0.98;;;0.80;;
52940;SDS011;62001;53.366;6.636;2022-09-28T10:43:24;4.45;;;1.17;;
52940;SDS011;62001;53.366;6.636;2022-09-28T10:46:12;2.73;;;0.80;;
52940;SDS011;62001;53.366;6.636;2022-09-28T10:51:09;2.88;;;0.90;;
52940;SDS011;62001;53.366;6.636;2022-09-28T10:53:35;2.53;;;0.75;;
52940;SDS011;62001;53.366;6.636;2022-09-28T10:56:04;1.45;;;0.77;;
52940;SDS011;62001;53.366;6.636;2022-09-28T11:01:24;1.58;;;0.65;;
52940;SDS011;62001;53.366;6.636;2022-09-28T11:03:55;1.48;;;0.70;;
52940;SDS011;62001;53.366;6.636;2022-09-28T11:06:36;2.25;;;0.60;;
52940;SDS011;62001;53.366;6.636;2022-09-28T11:09:04;1.00;;;0.60;;
52940;SDS011;62001;53.366;6.636;2022-09-28T11:11:50;0.98;;;0.55;;
52940;SDS011;62001;53.366;6.636;2022-09-28T11:14:26;2.50;;;0.60;;
52940;SDS011;62001;53.366;6.636;2022-09-28T11:17:14;1.33;;;0.80;;
52940;SDS011;62001;53.366;6.636;2022-09-28T11:19:54;1.10;;;0.73;;
52940;SDS011;62001;53.366;6.636;2022-09-28T11:22:28;3.25;;;0.55;;
52940;SDS011;62001;53.366;6.636;2022-09-28T11:30:36;1.35;;;0.50;;
52940;SDS011;62001;53.366;6.636;2022-09-28T11:33:16;0.60;;;0.40;;
52940;SDS011;62001;53.366;6.636;2022-09-28T11:35:48;0.88;;;0.47;;
52940;SDS011;62001;53.366;6.636;2022-09-28T11:38:29;0.70;;;0.40;;
52940;SDS011;62001;53.366;6.636;2022-09-28T11:41:15;1.48;;;0.40;;
52940;SDS011;62001;53.366;6.636;2022-09-28T11:53:17;2.28;;;0.30;;
52940;SDS011;62001;53.366;6.636;2022-09-28T11:56:04;2.05;;;0.40;;
52940;SDS011;62001;53.366;6.636;2022-09-28T11:59:09;1.65;;;0.50;;
52940;SDS011;62001;53.366;6.636;2022-09-28T12:04:12;4.20;;;0.30;;
52940;SDS011;62001;53.366;6.636;2022-09-28T12:07:00;3.85;;;0.40;;
52940;SDS011;62001;53.366;6.636;2022-09-28T12:09:57;1.25;;;0.40;;
52940;SDS011;62001;53.366;6.636;2022-09-28T12:15:42;1.85;;;0.40;;
52940;SDS011;62001;53.366;6.636;2022-09-28T12:18:16;0.87;;;0.33;;
52940;SDS011;62001;53.366;6.636;2022-09-28T12:20:53;2.65;;;0.50;;
52940;SDS011;62001;53.366;6.636;2022-09-28T12:23:50;1.30;;;0.80;;
52940;SDS011;62001;53.366;6.636;2022-09-28T12:28:49;1.17;;;1.08;;
52940;SDS011;62001;53.366;6.636;2022-09-28T12:33:47;1.80;;;0.90;;
52940;SDS011;62001;53.366;6.636;2022-09-28T12:36:28;4.07;;;1.20;;
52940;SDS011;62001;53.366;6.636;2022-09-28T12:42:06;2.60;;;1.00;;
52940;SDS011;62001;53.366;6.636;2022-09-28T13:01:35;2.08;;;0.90;;
52940;SDS011;62001;53.366;6.636;2022-09-28T13:04:14;1.73;;;1.00;;
52940;SDS011;62001;53.366;6.636;2022-09-28T13:07:03;0.45;;;0.45;;
52940;SDS011;62001;53.366;6.636;2022-09-28T13:17:56;2.67;;;0.80;;
52940;SDS011;62001;53.366;6.636;2022-09-28T13:20:52;2.35;;;0.90;;
52940;SDS011;62001;53.366;6.636;2022-09-28T13:23:50;1.17;;;0.70;;
52940;SDS011;62001;53.366;6.636;2022-09-28T13:26:25;2.30;;;0.70;;
52940;SDS011;62001;53.366;6.636;2022-09-28T13:29:00;2.42;;;0.60;;
52940;SDS011;62001;53.366;6.636;2022-09-28T13:31:35;0.95;;;0.60;;
52940;SDS011;62001;53.366;6.636;2022-09-28T13:34:05;4.50;;;0.80;;
52940;SDS011;62001;53.366;6.636;2022-09-28T13:36:38;2.30;;;0.70;;
52940;SDS011;62001;53.366;6.636;2022-09-28T13:39:32;3.72;;;0.90;;
52940;SDS011;62001;53.366;6.636;2022-09-28T13:41:59;2.08;;;0.47;;
52940;SDS011;62001;53.366;6.636;2022-09-28T14:01:38;1.10;;;0.60;;
52940;SDS011;62001;53.366;6.636;2022-09-28T14:06:43;2.30;;;0.70;;
52940;SDS011;62001;53.366;6.636;2022-09-28T14:11:54;1.20;;;0.70;;
52940;SDS011;62001;53.366;6.636;2022-09-28T14:14:43;1.42;;;0.60;;
52940;SDS011;62001;53.366;6.636;2022-09-28T14:19:52;1.33;;;0.60;;
52940;SDS011;62001;53.366;6.636;2022-09-28T14:25:04;2.42;;;0.68;;
52940;SDS011;62001;53.366;6.636;2022-09-28T14:33:14;3.50;;;0.47;;
52940;SDS011;62001;53.366;6.636;2022-09-28T14:35:52;4.20;;;0.40;;
52940;SDS011;62001;53.366;6.636;2022-09-28T14:38:21;3.22;;;0.65;;
52940;SDS011;62001;53.366;6.636;2022-09-28T14:53:55;2.30;;;0.60;;
52940;SDS011;62001;53.366;6.636;2022-09-28T14:59:19;0.55;;;0.40;;
52940;SDS011;62001;53.366;6.636;2022-09-28T15:04:36;1.45;;;0.40;;
52940;SDS011;62001;53.366;6.636;2022-09-28T15:07:26;2.83;;;0.68;;
52940;SDS011;62001;53.366;6.636;2022-09-28T15:09:57;1.75;;;0.60;;
52940;SDS011;62001;53.366;6.636;2022-09-28T15:12:25;0.43;;;0.43;;
52940;SDS011;62001;53.366;6.636;2022-09-28T15:14:54;1.50;;;0.50;;
52940;SDS011;62001;53.366;6.636;2022-09-28T15:17:33;1.08;;;0.80;;
52940;SDS011;62001;53.366;6.636;2022-09-28T15:22:27;3.28;;;0.95;;
52940;SDS011;62001;53.366;6.636;2022-09-28T15:24:57;2.13;;;0.80;;
52940;SDS011;62001;53.366;6.636;2022-09-28T15:27:24;4.07;;;0.80;;
52940;SDS011;62001;53.366;6.636;2022-09-28T15:29:58;1.55;;;0.63;;
52940;SDS011;62001;53.366;6.636;2022-09-28T15:32:25;0.88;;;0.70;;
52940;SDS011;62001;53.366;6.636;2022-09-28T15:34:53;1.48;;;0.90;;
52940;SDS011;62001;53.366;6.636;2022-09-28T15:37:25;6.13;;;1.10;;
52940;SDS011;62001;53.366;6.636;2022-09-28T15:39:57;2.70;;;0.90;;
52940;SDS011;62001;53.366;6.636;2022-09-28T15:42:24;2.10;;;0.88;;
52940;SDS011;62001;53.366;6.636;2022-09-28T15:45:03;1.33;;;0.90;;
52940;SDS011;62001;53.366;6.636;2022-09-28T15:47:37;1.15;;;1.00;;
52940;SDS011;62001;53.366;6.636;2022-09-28T15:50:18;2.60;;;1.10;;
52940;SDS011;62001;53.366;6.636;2022-09-28T15:52:59;1.45;;;0.90;;
52940;SDS011;62001;53.366;6.636;2022-09-28T15:55:36;2.10;;;0.80;;
52940;SDS011;62001;53.366;6.636;2022-09-28T16:00:40;1.52;;;0.68;;
52940;SDS011;62001;53.366;6.636;2022-09-28T16:05:42;0.70;;;0.60;;
52940;SDS011;62001;53.366;6.636;2022-09-28T16:08:22;1.85;;;0.80;;
52940;SDS011;62001;53.366;6.636;2022-09-28T16:11:11;1.08;;;0.60;;
52940;SDS011;62001;53.366;6.636;2022-09-28T16:14:02;3.17;;;0.60;;
52940;SDS011;62001;53.366;6.636;2022-09-28T16:16:35;1.42;;;0.75;;
52940;SDS011;62001;53.366;6.636;2022-09-28T16:19:26;0.88;;;0.73;;
52940;SDS011;62001;53.366;6.636;2022-09-28T16:21:57;0.90;;;0.70;;
52940;SDS011;62001;53.366;6.636;2022-09-28T16:24:27;4.30;;;1.00;;
52940;SDS011;62001;53.366;6.636;2022-09-28T16:27:00;2.30;;;0.85;;
52940;SDS011;62001;53.366;6.636;2022-09-28T16:30:00;1.63;;;0.80;;
52940;SDS011;62001;53.366;6.636;2022-09-28T16:32:36;1.42;;;0.75;;
52940;SDS011;62001;53.366;6.636;2022-09-28T16:37:37;1.90;;;0.90;;
52940;SDS011;62001;53.366;6.636;2022-09-28T16:40:10;2.22;;;1.08;;
52940;SDS011;62001;53.366;6.636;2022-09-28T16:42:40;2.50;;;1.13;;
52940;SDS011;62001;53.366;6.636;2022-09-28T16:45:11;1.58;;;1.20;;
52940;SDS011;62001;53.366;6.636;2022-09-28T16:47:43;3.20;;;1.30;;
52940;SDS011;62001;53.366;6.636;2022-09-28T16:50:14;1.75;;;1.20;;
52940;SDS011;62001;53.366;6.636;2022-09-28T16:52:41;2.72;;;1.60;;
52940;SDS011;62001;53.366;6.636;2022-09-28T16:55:26;3.35;;;1.85;;
52940;SDS011;62001;53.366;6.636;2022-09-28T16:57:52;3.00;;;1.65;;
52940;SDS011;62001;53.366;6.636;2022-09-28T17:00:22;2.88;;;1.60;;
52940;SDS011;62001;53.366;6.636;2022-09-28T17:02:49;3.70;;;1.85;;
52940;SDS011;62001;53.366;6.636;2022-09-28T17:05:16;7.00;;;2.08;;
52940;SDS011;62001;53.366;6.636;2022-09-28T17:07:52;4.07;;;2.03;;
52940;SDS011;62001;53.366;6.636;2022-09-28T17:10:34;5.13;;;2.00;;
52940;SDS011;62001;53.366;6.636;2022-09-28T17:13:04;2.85;;;1.80;;
52940;SDS011;62001;53.366;6.636;2022-09-28T17:15:30;3.60;;;2.20;;
52940;SDS011;62001;53.366;6.636;2022-09-28T17:17:56;2.63;;;1.90;;
52940;SDS011;62001;53.366;6.636;2022-09-28T17:20:26;3.53;;;1.85;;
52940;SDS011;62001;53.366;6.636;2022-09-28T17:22:54;2.20;;;1.80;;
52940;SDS011;62001;53.366;6.636;2022-09-28T17:25:22;2.42;;;1.95;;
52940;SDS011;62001;53.366;6.636;2022-09-28T17:27:50;4.95;;;1.92;;
52940;SDS011;62001;53.366;6.636;2022-09-28T17:30:18;4.85;;;2.20;;
52940;SDS011;62001;53.366;6.636;2022-09-28T17:32:44;5.03;;;2.72;;
52940;SDS011;62001;53.366;6.636;2022-09-28T17:35:12;3.50;;;2.70;;
52940;SDS011;62001;53.366;6.636;2022-09-28T17:37:41;3.55;;;2.60;;
52940;SDS011;62001;53.366;6.636;2022-09-28T17:42:45;2.53;;;2.30;;
52940;SDS011;62001;53.366;6.636;2022-09-28T17:45:12;3.65;;;2.33;;
52940;SDS011;62001;53.366;6.636;2022-09-28T17:47:40;8.65;;;2.90;;
52940;SDS011;62001;53.366;6.636;2022-09-28T17:50:25;7.57;;;2.80;;
52940;SDS011;62001;53.366;6.636;2022-09-28T17:52:52;5.85;;;2.65;;
52940;SDS011;62001;53.366;6.636;2022-09-28T17:55:19;3.72;;;2.67;;
52940;SDS011;62001;53.366;6.636;2022-09-28T17:57:49;3.72;;;2.65;;
52940;SDS011;62001;53.366;6.636;2022-09-28T18:00:15;8.23;;;3.90;;
52940;SDS011;62001;53.366;6.636;2022-09-28T18:02:42;5.80;;;3.38;;
52940;SDS011;62001;53.366;6.636;2022-09-28T18:05:09;4.28;;;2.45;;
52940;SDS011;62001;53.366;6.636;2022-09-28T18:07:38;3.05;;;2.47;;
52940;SDS011;62001;53.366;6.636;2022-09-28T18:10:05;5.93;;;3.15;;
52940;SDS011;62001;53.366;6.636;2022-09-28T18:12:36;3.42;;;3.13;;
52940;SDS011;62001;53.366;6.636;2022-09-28T18:15:02;3.35;;;3.05;;
52940;SDS011;62001;53.366;6.636;2022-09-28T18:17:28;4.15;;;3.28;;
52940;SDS011;62001;53.366;6.636;2022-09-28T18:19:53;8.73;;;3.28;;
52940;SDS011;62001;53.366;6.636;2022-09-28T18:22:19;5.53;;;3.45;;
52940;SDS011;62001;53.366;6.636;2022-09-28T18:24:45;5.00;;;3.65;;
52940;SDS011;62001;53.366;6.636;2022-09-28T18:27:11;4.05;;;2.97;;
52940;SDS011;62001;53.366;6.636;2022-09-28T18:29:37;3.88;;;3.47;;
52940;SDS011;62001;53.366;6.636;2022-09-28T18:32:03;4.30;;;3.28;;
52940;SDS011;62001;53.366;6.636;2022-09-28T18:34:28;4.07;;;3.55;;